Pagrindinis puslapis
METAR-TAF:

METAR-TAF

Oro uostai :

King Salmon, Aliaska, Jungtinės Amerikos Valstijos

platuma: 58-40-36N, ilguma: 156-38-57W, Aukštis: 17 m

Dabartinis oras

Ataskaita buvo paskelbta 14 minutes, ne 19:54 UTC
Vėjas 7 kt iš Šiaurės
Temperatūra -1°C
Drėgmė 86%
Slėgis 1019 hPa
Matomumas: 16.1 km
Apsiniaukę ne aukštis 3900 ft

METAR: PAKN 281954Z 36007KT 10SM OVC039 M01/M03 A3010 RMK AO2 SLP194 T10061033

Laikas: 12:08 (20:08 UTC)

Prognozė

Ataskaita buvo paskelbta 2 valandos ir 37 minutes, ne 17:31 UTC
Prognozė galioja nuo 28 metu 18 UTC su 29 metu 18 UTC
Vėjas 6 kt iš Šiaurės/Šiaurės Vakarų
Matomumas: 10 km
Išsisklaidę debesys ne aukštis 2000 ft
Su prošvaistėmis ne aukštis 3000 ft

TAF: PAKN 281731Z 2818/2918 34006KT P6SM SCT020 BKN030

Orai ataskaitas ir orų prognozės (METAR, TAF).

turimą stotys yra geltonos ir raudonos taškus žemėlapyje.

Perkelti pele per norėdami pamatyti stoties vardą.

Tada spustelėkite, norėdami matyti oro stebėjimo ir prognozės.

Norėdami pakeisti žemėlapį: spustelėkite ant žalios mygtukų su juodo kryžiaus žemyn,; žalią mygtuką su brūkšneliu, jei norite nutolinti; arba žalių rodyklių gretimoms žemėlapius.


METAR-TAF: